sensor_id;sensor_type;location;lat;lon;timestamp;temperature;humidity
49829;DHT22;35723;51.194;5.112;2023-06-10T00:01:58;23.90;98.10
49829;DHT22;35723;51.194;5.112;2023-06-10T00:04:25;23.80;98.20
49829;DHT22;35723;51.194;5.112;2023-06-10T00:06:51;23.90;98.40
49829;DHT22;35723;51.194;5.112;2023-06-10T00:09:17;23.90;98.30
49829;DHT22;35723;51.194;5.112;2023-06-10T00:11:43;23.80;98.30
49829;DHT22;35723;51.194;5.112;2023-06-10T00:14:10;23.80;98.10
49829;DHT22;35723;51.194;5.112;2023-06-10T00:16:36;23.80;98.10
49829;DHT22;35723;51.194;5.112;2023-06-10T00:19:03;23.80;98.00
49829;DHT22;35723;51.194;5.112;2023-06-10T00:21:30;23.80;98.30
49829;DHT22;35723;51.194;5.112;2023-06-10T00:23:56;23.80;97.90
49829;DHT22;35723;51.194;5.112;2023-06-10T00:26:22;23.90;97.70
49829;DHT22;35723;51.194;5.112;2023-06-10T00:28:49;23.90;97.80
49829;DHT22;35723;51.194;5.112;2023-06-10T00:31:15;24.00;97.80
49829;DHT22;35723;51.194;5.112;2023-06-10T00:33:41;24.00;97.60
49829;DHT22;35723;51.194;5.112;2023-06-10T00:36:06;24.00;98.00
49829;DHT22;35723;51.194;5.112;2023-06-10T00:38:32;24.00;97.90
49829;DHT22;35723;51.194;5.112;2023-06-10T00:40:58;24.00;97.90
49829;DHT22;35723;51.194;5.112;2023-06-10T00:43:24;24.00;97.80
49829;DHT22;35723;51.194;5.112;2023-06-10T00:45:51;24.00;97.70
49829;DHT22;35723;51.194;5.112;2023-06-10T00:48:17;24.10;97.90
49829;DHT22;35723;51.194;5.112;2023-06-10T00:50:43;24.10;98.00
49829;DHT22;35723;51.194;5.112;2023-06-10T00:53:09;24.00;98.20
49829;DHT22;35723;51.194;5.112;2023-06-10T00:55:35;23.90;98.30
49829;DHT22;35723;51.194;5.112;2023-06-10T00:58:03;24.00;98.50
49829;DHT22;35723;51.194;5.112;2023-06-10T01:00:29;23.90;98.40
49829;DHT22;35723;51.194;5.112;2023-06-10T01:02:55;23.80;98.40
49829;DHT22;35723;51.194;5.112;2023-06-10T01:05:21;23.80;98.30
49829;DHT22;35723;51.194;5.112;2023-06-10T01:08:03;23.80;98.40
49829;DHT22;35723;51.194;5.112;2023-06-10T01:13:15;23.70;98.60
49829;DHT22;35723;51.194;5.112;2023-06-10T01:15:41;23.60;98.80
49829;DHT22;35723;51.194;5.112;2023-06-10T01:18:09;23.60;98.90
49829;DHT22;35723;51.194;5.112;2023-06-10T01:20:37;23.50;99.00
49829;DHT22;35723;51.194;5.112;2023-06-10T01:23:06;23.50;99.00
49829;DHT22;35723;51.194;5.112;2023-06-10T01:25:32;23.40;99.10
49829;DHT22;35723;51.194;5.112;2023-06-10T01:33:20;23.30;99.50
49829;DHT22;35723;51.194;5.112;2023-06-10T01:35:47;23.20;99.30
49829;DHT22;35723;51.194;5.112;2023-06-10T01:38:14;23.20;99.50
49829;DHT22;35723;51.194;5.112;2023-06-10T01:40:41;23.10;99.40
49829;DHT22;35723;51.194;5.112;2023-06-10T01:43:07;23.20;99.40
49829;DHT22;35723;51.194;5.112;2023-06-10T01:45:33;23.20;99.40
49829;DHT22;35723;51.194;5.112;2023-06-10T01:47:59;23.10;99.50
49829;DHT22;35723;51.194;5.112;2023-06-10T01:50:24;23.10;99.60
49829;DHT22;35723;51.194;5.112;2023-06-10T01:52:50;23.10;99.60
49829;DHT22;35723;51.194;5.112;2023-06-10T01:55:16;23.00;99.70
49829;DHT22;35723;51.194;5.112;2023-06-10T01:57:41;23.00;99.70
49829;DHT22;35723;51.194;5.112;2023-06-10T02:00:07;23.00;99.70
49829;DHT22;35723;51.194;5.112;2023-06-10T02:02:33;23.00;99.70
49829;DHT22;35723;51.194;5.112;2023-06-10T02:04:59;23.00;99.70
49829;DHT22;35723;51.194;5.112;2023-06-10T02:07:25;23.00;99.80
49829;DHT22;35723;51.194;5.112;2023-06-10T02:09:51;23.00;99.80
49829;DHT22;35723;51.194;5.112;2023-06-10T02:12:17;23.00;99.70
49829;DHT22;35723;51.194;5.112;2023-06-10T02:14:42;23.00;99.60
49829;DHT22;35723;51.194;5.112;2023-06-10T02:17:08;23.00;99.80
49829;DHT22;35723;51.194;5.112;2023-06-10T02:19:38;23.00;99.70
49829;DHT22;35723;51.194;5.112;2023-06-10T02:22:08;23.00;99.90
49829;DHT22;35723;51.194;5.112;2023-06-10T02:24:36;23.00;99.80
49829;DHT22;35723;51.194;5.112;2023-06-10T02:27:02;22.90;99.70
49829;DHT22;35723;51.194;5.112;2023-06-10T02:29:28;22.90;99.90
49829;DHT22;35723;51.194;5.112;2023-06-10T02:31:54;22.90;99.90
49829;DHT22;35723;51.194;5.112;2023-06-10T02:34:20;22.90;99.80
49829;DHT22;35723;51.194;5.112;2023-06-10T02:36:46;22.80;99.90
49829;DHT22;35723;51.194;5.112;2023-06-10T02:39:14;22.70;99.90
49829;DHT22;35723;51.194;5.112;2023-06-10T02:41:40;22.70;99.90
49829;DHT22;35723;51.194;5.112;2023-06-10T02:44:05;22.70;99.90
49829;DHT22;35723;51.194;5.112;2023-06-10T02:46:31;22.60;99.90
49829;DHT22;35723;51.194;5.112;2023-06-10T02:48:57;22.60;99.90
49829;DHT22;35723;51.194;5.112;2023-06-10T02:51:22;22.50;99.90
49829;DHT22;35723;51.194;5.112;2023-06-10T02:53:48;22.50;99.90
49829;DHT22;35723;51.194;5.112;2023-06-10T02:56:16;22.50;99.90
49829;DHT22;35723;51.194;5.112;2023-06-10T02:58:42;22.40;99.90
49829;DHT22;35723;51.194;5.112;2023-06-10T03:01:08;22.40;99.90
49829;DHT22;35723;51.194;5.112;2023-06-10T03:03:35;22.40;99.90
49829;DHT22;35723;51.194;5.112;2023-06-10T03:06:02;22.40;99.90
49829;DHT22;35723;51.194;5.112;2023-06-10T03:08:29;22.30;99.90
49829;DHT22;35723;51.194;5.112;2023-06-10T03:10:55;22.30;99.90
49829;DHT22;35723;51.194;5.112;2023-06-10T03:13:22;22.30;99.90
49829;DHT22;35723;51.194;5.112;2023-06-10T03:15:49;22.20;99.90
49829;DHT22;35723;51.194;5.112;2023-06-10T03:18:15;22.20;99.90
49829;DHT22;35723;51.194;5.112;2023-06-10T03:20:40;22.20;99.90
49829;DHT22;35723;51.194;5.112;2023-06-10T03:23:07;22.10;99.90
49829;DHT22;35723;51.194;5.112;2023-06-10T03:25:32;22.00;99.90
49829;DHT22;35723;51.194;5.112;2023-06-10T03:27:58;21.90;99.90
49829;DHT22;35723;51.194;5.112;2023-06-10T03:30:24;22.00;99.90
49829;DHT22;35723;51.194;5.112;2023-06-10T03:32:50;22.00;99.90
49829;DHT22;35723;51.194;5.112;2023-06-10T03:35:15;21.90;99.90
49829;DHT22;35723;51.194;5.112;2023-06-10T03:37:41;21.80;99.90
49829;DHT22;35723;51.194;5.112;2023-06-10T03:40:08;21.70;99.90
49829;DHT22;35723;51.194;5.112;2023-06-10T03:42:34;21.80;99.90
49829;DHT22;35723;51.194;5.112;2023-06-10T03:45:00;21.80;99.90
49829;DHT22;35723;51.194;5.112;2023-06-10T03:47:26;21.70;99.90
49829;DHT22;35723;51.194;5.112;2023-06-10T03:49:51;21.60;99.90
49829;DHT22;35723;51.194;5.112;2023-06-10T03:52:18;21.70;99.90
49829;DHT22;35723;51.194;5.112;2023-06-10T03:54:44;21.70;99.90
49829;DHT22;35723;51.194;5.112;2023-06-10T03:57:09;21.60;99.90
49829;DHT22;35723;51.194;5.112;2023-06-10T03:59:35;21.60;99.90
49829;DHT22;35723;51.194;5.112;2023-06-10T04:02:01;21.60;99.90
49829;DHT22;35723;51.194;5.112;2023-06-10T04:04:27;21.60;99.90
49829;DHT22;35723;51.194;5.112;2023-06-10T04:06:52;21.50;99.90
49829;DHT22;35723;51.194;5.112;2023-06-10T04:09:18;21.50;99.90
49829;DHT22;35723;51.194;5.112;2023-06-10T04:11:44;21.50;99.90
49829;DHT22;35723;51.194;5.112;2023-06-10T04:14:09;21.50;99.90
49829;DHT22;35723;51.194;5.112;2023-06-10T04:16:35;21.50;99.90
49829;DHT22;35723;51.194;5.112;2023-06-10T04:19:01;21.50;99.90
49829;DHT22;35723;51.194;5.112;2023-06-10T04:21:27;21.50;99.90
49829;DHT22;35723;51.194;5.112;2023-06-10T04:23:53;21.50;99.90
49829;DHT22;35723;51.194;5.112;2023-06-10T04:26:19;21.50;99.90
49829;DHT22;35723;51.194;5.112;2023-06-10T04:28:44;21.50;99.90
49829;DHT22;35723;51.194;5.112;2023-06-10T04:31:10;21.60;99.90
49829;DHT22;35723;51.194;5.112;2023-06-10T04:33:36;21.50;99.90
49829;DHT22;35723;51.194;5.112;2023-06-10T04:36:01;21.60;99.90
49829;DHT22;35723;51.194;5.112;2023-06-10T04:38:28;21.60;99.90
49829;DHT22;35723;51.194;5.112;2023-06-10T04:40:53;21.60;99.90
49829;DHT22;35723;51.194;5.112;2023-06-10T04:43:19;21.60;99.90
49829;DHT22;35723;51.194;5.112;2023-06-10T04:45:45;21.60;99.90
49829;DHT22;35723;51.194;5.112;2023-06-10T04:48:11;21.60;99.90
49829;DHT22;35723;51.194;5.112;2023-06-10T04:50:37;21.60;99.90
49829;DHT22;35723;51.194;5.112;2023-06-10T04:53:03;21.70;99.90
49829;DHT22;35723;51.194;5.112;2023-06-10T04:55:28;21.70;99.90
49829;DHT22;35723;51.194;5.112;2023-06-10T04:57:54;21.70;99.90
49829;DHT22;35723;51.194;5.112;2023-06-10T05:00:20;21.70;99.90
49829;DHT22;35723;51.194;5.112;2023-06-10T05:02:46;21.70;99.90
49829;DHT22;35723;51.194;5.112;2023-06-10T05:05:18;21.70;99.90
49829;DHT22;35723;51.194;5.112;2023-06-10T05:07:44;21.80;99.90
49829;DHT22;35723;51.194;5.112;2023-06-10T05:10:10;21.90;99.90
49829;DHT22;35723;51.194;5.112;2023-06-10T05:12:38;21.80;99.90
49829;DHT22;35723;51.194;5.112;2023-06-10T05:15:05;21.90;99.90
49829;DHT22;35723;51.194;5.112;2023-06-10T05:17:31;21.90;99.90
49829;DHT22;35723;51.194;5.112;2023-06-10T05:19:57;21.90;99.90
49829;DHT22;35723;51.194;5.112;2023-06-10T05:22:23;22.00;99.90
49829;DHT22;35723;51.194;5.112;2023-06-10T05:24:51;22.00;99.90
49829;DHT22;35723;51.194;5.112;2023-06-10T05:27:17;22.10;99.90
49829;DHT22;35723;51.194;5.112;2023-06-10T05:29:42;22.10;99.90
49829;DHT22;35723;51.194;5.112;2023-06-10T05:32:08;22.20;99.90
49829;DHT22;35723;51.194;5.112;2023-06-10T05:34:34;22.20;99.90
49829;DHT22;35723;51.194;5.112;2023-06-10T05:37:00;22.20;99.90
49829;DHT22;35723;51.194;5.112;2023-06-10T05:39:25;22.30;99.90
49829;DHT22;35723;51.194;5.112;2023-06-10T05:41:51;22.40;99.90
49829;DHT22;35723;51.194;5.112;2023-06-10T05:44:16;22.40;99.90
49829;DHT22;35723;51.194;5.112;2023-06-10T05:46:42;22.40;99.90
49829;DHT22;35723;51.194;5.112;2023-06-10T05:49:08;22.50;99.90
49829;DHT22;35723;51.194;5.112;2023-06-10T05:51:33;22.60;99.90
49829;DHT22;35723;51.194;5.112;2023-06-10T05:53:59;22.60;99.90
49829;DHT22;35723;51.194;5.112;2023-06-10T05:56:24;22.70;99.90
49829;DHT22;35723;51.194;5.112;2023-06-10T05:58:51;22.80;99.90
49829;DHT22;35723;51.194;5.112;2023-06-10T06:01:16;22.90;99.90
49829;DHT22;35723;51.194;5.112;2023-06-10T06:03:42;22.90;99.90
49829;DHT22;35723;51.194;5.112;2023-06-10T06:06:08;23.00;99.90
49829;DHT22;35723;51.194;5.112;2023-06-10T06:08:34;23.00;99.90
49829;DHT22;35723;51.194;5.112;2023-06-10T06:10:59;23.10;99.90
49829;DHT22;35723;51.194;5.112;2023-06-10T06:13:25;23.20;99.90
49829;DHT22;35723;51.194;5.112;2023-06-10T06:15:50;23.20;99.90
49829;DHT22;35723;51.194;5.112;2023-06-10T06:18:16;23.20;99.90
49829;DHT22;35723;51.194;5.112;2023-06-10T06:20:43;23.30;99.90
49829;DHT22;35723;51.194;5.112;2023-06-10T06:23:09;23.40;99.90
49829;DHT22;35723;51.194;5.112;2023-06-10T06:25:36;23.40;99.90
49829;DHT22;35723;51.194;5.112;2023-06-10T06:28:06;23.50;99.90
49829;DHT22;35723;51.194;5.112;2023-06-10T06:30:31;23.80;99.90
49829;DHT22;35723;51.194;5.112;2023-06-10T06:32:57;23.80;99.90
49829;DHT22;35723;51.194;5.112;2023-06-10T06:35:22;23.70;99.90
49829;DHT22;35723;51.194;5.112;2023-06-10T06:37:48;23.70;99.90
49829;DHT22;35723;51.194;5.112;2023-06-10T06:40:14;23.80;99.90
49829;DHT22;35723;51.194;5.112;2023-06-10T06:42:39;23.90;99.90
49829;DHT22;35723;51.194;5.112;2023-06-10T06:45:05;23.90;99.90
49829;DHT22;35723;51.194;5.112;2023-06-10T06:47:31;24.00;99.90
49829;DHT22;35723;51.194;5.112;2023-06-10T06:49:57;24.00;99.90
49829;DHT22;35723;51.194;5.112;2023-06-10T06:52:22;24.10;99.90
49829;DHT22;35723;51.194;5.112;2023-06-10T06:54:48;24.20;99.90
49829;DHT22;35723;51.194;5.112;2023-06-10T06:57:15;24.20;99.90
49829;DHT22;35723;51.194;5.112;2023-06-10T06:59:40;24.30;99.90
49829;DHT22;35723;51.194;5.112;2023-06-10T07:02:06;24.30;99.70
49829;DHT22;35723;51.194;5.112;2023-06-10T07:04:32;24.40;99.40
49829;DHT22;35723;51.194;5.112;2023-06-10T07:06:57;24.50;99.50
49829;DHT22;35723;51.194;5.112;2023-06-10T07:09:23;24.60;99.40
49829;DHT22;35723;51.194;5.112;2023-06-10T07:11:49;24.60;99.10
49829;DHT22;35723;51.194;5.112;2023-06-10T07:14:14;24.70;99.40
49829;DHT22;35723;51.194;5.112;2023-06-10T07:16:40;24.80;99.20
49829;DHT22;35723;51.194;5.112;2023-06-10T07:19:06;24.90;98.80
49829;DHT22;35723;51.194;5.112;2023-06-10T07:21:31;24.90;98.60
49829;DHT22;35723;51.194;5.112;2023-06-10T07:23:58;25.00;98.20
49829;DHT22;35723;51.194;5.112;2023-06-10T07:26:24;25.10;98.50
49829;DHT22;35723;51.194;5.112;2023-06-10T07:28:51;25.10;98.50
49829;DHT22;35723;51.194;5.112;2023-06-10T07:31:16;25.10;98.40
49829;DHT22;35723;51.194;5.112;2023-06-10T07:33:42;25.20;98.60
49829;DHT22;35723;51.194;5.112;2023-06-10T07:36:09;25.30;98.50
49829;DHT22;35723;51.194;5.112;2023-06-10T07:38:35;25.30;98.00
49829;DHT22;35723;51.194;5.112;2023-06-10T07:41:01;25.40;98.10
49829;DHT22;35723;51.194;5.112;2023-06-10T07:43:26;25.40;98.00
49829;DHT22;35723;51.194;5.112;2023-06-10T07:45:52;25.50;98.00
49829;DHT22;35723;51.194;5.112;2023-06-10T07:48:18;25.60;97.50
49829;DHT22;35723;51.194;5.112;2023-06-10T07:50:43;25.70;97.10
49829;DHT22;35723;51.194;5.112;2023-06-10T07:53:09;25.70;97.10
49829;DHT22;35723;51.194;5.112;2023-06-10T07:55:35;25.80;97.20
49829;DHT22;35723;51.194;5.112;2023-06-10T07:58:01;25.90;97.10
49829;DHT22;35723;51.194;5.112;2023-06-10T08:00:26;25.90;97.30
49829;DHT22;35723;51.194;5.112;2023-06-10T08:02:52;26.00;97.30
49829;DHT22;35723;51.194;5.112;2023-06-10T08:05:17;26.10;97.30
49829;DHT22;35723;51.194;5.112;2023-06-10T08:07:44;26.20;97.00
49829;DHT22;35723;51.194;5.112;2023-06-10T08:10:10;26.20;96.80
49829;DHT22;35723;51.194;5.112;2023-06-10T08:12:36;26.30;96.60
49829;DHT22;35723;51.194;5.112;2023-06-10T08:15:02;26.30;96.80
49829;DHT22;35723;51.194;5.112;2023-06-10T08:17:32;26.40;96.50
49829;DHT22;35723;51.194;5.112;2023-06-10T08:19:57;26.50;96.30
49829;DHT22;35723;51.194;5.112;2023-06-10T08:22:23;26.60;96.30
49829;DHT22;35723;51.194;5.112;2023-06-10T08:24:49;26.70;96.20
49829;DHT22;35723;51.194;5.112;2023-06-10T08:27:14;26.70;95.70
49829;DHT22;35723;51.194;5.112;2023-06-10T08:29:40;26.80;95.70
49829;DHT22;35723;51.194;5.112;2023-06-10T08:32:06;26.90;95.30
49829;DHT22;35723;51.194;5.112;2023-06-10T08:34:35;27.00;95.20
49829;DHT22;35723;51.194;5.112;2023-06-10T08:37:02;27.00;95.20
49829;DHT22;35723;51.194;5.112;2023-06-10T08:39:27;27.10;95.80
49829;DHT22;35723;51.194;5.112;2023-06-10T08:44:37;27.20;95.60
49829;DHT22;35723;51.194;5.112;2023-06-10T08:47:14;27.20;95.10
49829;DHT22;35723;51.194;5.112;2023-06-10T08:49:43;27.30;95.40
49829;DHT22;35723;51.194;5.112;2023-06-10T08:52:19;27.40;94.70
49829;DHT22;35723;51.194;5.112;2023-06-10T08:55:01;27.50;94.90
49829;DHT22;35723;51.194;5.112;2023-06-10T08:57:28;27.50;95.40
49829;DHT22;35723;51.194;5.112;2023-06-10T08:59:57;27.60;95.10
49829;DHT22;35723;51.194;5.112;2023-06-10T09:02:24;27.70;95.30
49829;DHT22;35723;51.194;5.112;2023-06-10T09:04:50;27.80;95.00
49829;DHT22;35723;51.194;5.112;2023-06-10T09:07:17;27.80;95.10
49829;DHT22;35723;51.194;5.112;2023-06-10T09:09:44;27.80;95.40
49829;DHT22;35723;51.194;5.112;2023-06-10T09:12:11;28.00;95.10
49829;DHT22;35723;51.194;5.112;2023-06-10T09:14:37;28.00;94.50
49829;DHT22;35723;51.194;5.112;2023-06-10T09:17:03;28.10;94.60
49829;DHT22;35723;51.194;5.112;2023-06-10T09:19:30;28.20;94.30
49829;DHT22;35723;51.194;5.112;2023-06-10T09:21:55;28.30;94.10
49829;DHT22;35723;51.194;5.112;2023-06-10T09:24:25;28.30;94.30
49829;DHT22;35723;51.194;5.112;2023-06-10T09:27:01;28.40;94.30
49829;DHT22;35723;51.194;5.112;2023-06-10T09:29:27;28.40;93.80
49829;DHT22;35723;51.194;5.112;2023-06-10T09:31:53;28.50;93.60
49829;DHT22;35723;51.194;5.112;2023-06-10T09:34:18;28.50;92.90
49829;DHT22;35723;51.194;5.112;2023-06-10T09:36:45;28.60;93.60
49829;DHT22;35723;51.194;5.112;2023-06-10T09:39:18;28.70;93.60
49829;DHT22;35723;51.194;5.112;2023-06-10T09:41:45;28.80;93.70
49829;DHT22;35723;51.194;5.112;2023-06-10T09:44:14;28.80;93.80
49829;DHT22;35723;51.194;5.112;2023-06-10T09:46:41;28.90;93.70
49829;DHT22;35723;51.194;5.112;2023-06-10T09:49:06;28.90;93.40
49829;DHT22;35723;51.194;5.112;2023-06-10T09:51:32;29.10;93.30
49829;DHT22;35723;51.194;5.112;2023-06-10T09:53:59;29.10;93.40
49829;DHT22;35723;51.194;5.112;2023-06-10T09:56:37;29.20;93.50
49829;DHT22;35723;51.194;5.112;2023-06-10T09:59:03;29.30;93.00
49829;DHT22;35723;51.194;5.112;2023-06-10T10:01:31;29.30;93.20
49829;DHT22;35723;51.194;5.112;2023-06-10T10:03:59;29.30;93.50
49829;DHT22;35723;51.194;5.112;2023-06-10T10:06:26;29.50;93.80
49829;DHT22;35723;51.194;5.112;2023-06-10T10:08:53;29.50;93.20
49829;DHT22;35723;51.194;5.112;2023-06-10T10:11:20;29.60;93.40
49829;DHT22;35723;51.194;5.112;2023-06-10T10:13:48;29.70;93.20
49829;DHT22;35723;51.194;5.112;2023-06-10T10:16:36;29.80;92.80
49829;DHT22;35723;51.194;5.112;2023-06-10T10:19:07;29.80;92.70
49829;DHT22;35723;51.194;5.112;2023-06-10T10:21:41;29.90;92.70
49829;DHT22;35723;51.194;5.112;2023-06-10T10:24:16;30.00;92.70
49829;DHT22;35723;51.194;5.112;2023-06-10T10:26:43;30.00;92.40
49829;DHT22;35723;51.194;5.112;2023-06-10T10:29:24;30.00;92.20
49829;DHT22;35723;51.194;5.112;2023-06-10T10:31:54;30.10;92.10
49829;DHT22;35723;51.194;5.112;2023-06-10T10:34:26;30.10;91.70
49829;DHT22;35723;51.194;5.112;2023-06-10T10:36:53;30.10;92.10
49829;DHT22;35723;51.194;5.112;2023-06-10T10:39:20;30.20;92.10
49829;DHT22;35723;51.194;5.112;2023-06-10T10:41:46;30.30;91.90
49829;DHT22;35723;51.194;5.112;2023-06-10T10:44:13;30.30;90.90
49829;DHT22;35723;51.194;5.112;2023-06-10T10:46:43;30.40;90.60
49829;DHT22;35723;51.194;5.112;2023-06-10T10:49:11;30.50;91.00
49829;DHT22;35723;51.194;5.112;2023-06-10T10:51:37;30.50;90.00
49829;DHT22;35723;51.194;5.112;2023-06-10T10:54:31;30.50;88.60
49829;DHT22;35723;51.194;5.112;2023-06-10T10:59:57;30.60;89.20
49829;DHT22;35723;51.194;5.112;2023-06-10T11:05:06;30.70;89.40
49829;DHT22;35723;51.194;5.112;2023-06-10T11:07:33;30.70;88.50
49829;DHT22;35723;51.194;5.112;2023-06-10T11:10:10;30.70;87.80
49829;DHT22;35723;51.194;5.112;2023-06-10T11:15:06;30.70;85.90
49829;DHT22;35723;51.194;5.112;2023-06-10T11:17:32;30.70;86.30
49829;DHT22;35723;51.194;5.112;2023-06-10T11:19:59;30.80;83.40
49829;DHT22;35723;51.194;5.112;2023-06-10T11:22:24;30.90;84.40
49829;DHT22;35723;51.194;5.112;2023-06-10T11:24:50;30.90;85.60
49829;DHT22;35723;51.194;5.112;2023-06-10T11:27:21;31.00;84.30
49829;DHT22;35723;51.194;5.112;2023-06-10T11:30:18;31.00;81.80
49829;DHT22;35723;51.194;5.112;2023-06-10T11:32:44;31.00;81.50
49829;DHT22;35723;51.194;5.112;2023-06-10T11:35:10;31.00;80.90
49829;DHT22;35723;51.194;5.112;2023-06-10T11:37:36;31.00;80.00
49829;DHT22;35723;51.194;5.112;2023-06-10T11:40:02;31.10;81.20
49829;DHT22;35723;51.194;5.112;2023-06-10T11:42:28;31.10;82.30
49829;DHT22;35723;51.194;5.112;2023-06-10T11:44:54;31.10;81.10
49829;DHT22;35723;51.194;5.112;2023-06-10T11:47:20;31.20;79.60
49829;DHT22;35723;51.194;5.112;2023-06-10T11:49:56;31.20;80.20
49829;DHT22;35723;51.194;5.112;2023-06-10T11:52:31;31.20;81.10
49829;DHT22;35723;51.194;5.112;2023-06-10T11:54:59;31.20;80.00
49829;DHT22;35723;51.194;5.112;2023-06-10T11:57:25;31.20;79.00
49829;DHT22;35723;51.194;5.112;2023-06-10T11:59:50;31.20;80.10
49829;DHT22;35723;51.194;5.112;2023-06-10T12:02:17;31.30;81.00
49829;DHT22;35723;51.194;5.112;2023-06-10T12:04:44;31.40;80.70
49829;DHT22;35723;51.194;5.112;2023-06-10T12:07:17;31.50;78.30
49829;DHT22;35723;51.194;5.112;2023-06-10T12:09:44;31.50;75.60
49829;DHT22;35723;51.194;5.112;2023-06-10T12:12:09;32.00;75.20
49829;DHT22;35723;51.194;5.112;2023-06-10T12:14:56;31.70;74.50
49829;DHT22;35723;51.194;5.112;2023-06-10T12:19:57;31.60;75.40
49829;DHT22;35723;51.194;5.112;2023-06-10T12:22:23;31.70;76.10
49829;DHT22;35723;51.194;5.112;2023-06-10T12:25:04;31.80;77.00
49829;DHT22;35723;51.194;5.112;2023-06-10T12:27:32;31.90;77.50
49829;DHT22;35723;51.194;5.112;2023-06-10T12:30:00;32.00;77.50
49829;DHT22;35723;51.194;5.112;2023-06-10T12:32:43;32.10;75.60
49829;DHT22;35723;51.194;5.112;2023-06-10T12:35:12;32.20;75.30
49829;DHT22;35723;51.194;5.112;2023-06-10T12:37:39;32.30;76.40
49829;DHT22;35723;51.194;5.112;2023-06-10T12:40:05;32.30;73.30
49829;DHT22;35723;51.194;5.112;2023-06-10T12:42:32;32.50;73.10
49829;DHT22;35723;51.194;5.112;2023-06-10T12:45:00;32.50;73.90
49829;DHT22;35723;51.194;5.112;2023-06-10T12:47:36;32.50;73.70
49829;DHT22;35723;51.194;5.112;2023-06-10T12:50:06;32.60;73.60
49829;DHT22;35723;51.194;5.112;2023-06-10T12:52:32;32.60;73.40
49829;DHT22;35723;51.194;5.112;2023-06-10T12:54:58;32.60;73.30
49829;DHT22;35723;51.194;5.112;2023-06-10T12:57:24;32.60;72.80
49829;DHT22;35723;51.194;5.112;2023-06-10T12:59:49;32.60;73.30
49829;DHT22;35723;51.194;5.112;2023-06-10T13:02:21;32.60;73.60
49829;DHT22;35723;51.194;5.112;2023-06-10T13:04:49;32.70;71.40
49829;DHT22;35723;51.194;5.112;2023-06-10T13:07:15;32.70;71.60
49829;DHT22;35723;51.194;5.112;2023-06-10T13:09:42;32.70;71.60
49829;DHT22;35723;51.194;5.112;2023-06-10T13:12:08;32.70;70.10
49829;DHT22;35723;51.194;5.112;2023-06-10T13:14:33;32.70;70.90
49829;DHT22;35723;51.194;5.112;2023-06-10T13:16:59;32.80;72.10
49829;DHT22;35723;51.194;5.112;2023-06-10T13:19:25;32.70;72.10
49829;DHT22;35723;51.194;5.112;2023-06-10T13:21:51;32.80;71.20
49829;DHT22;35723;51.194;5.112;2023-06-10T13:24:17;32.70;71.20
49829;DHT22;35723;51.194;5.112;2023-06-10T13:26:43;32.70;71.20
49829;DHT22;35723;51.194;5.112;2023-06-10T13:29:09;32.70;72.20
49829;DHT22;35723;51.194;5.112;2023-06-10T13:31:39;32.70;72.10
49829;DHT22;35723;51.194;5.112;2023-06-10T13:34:05;32.70;72.00
49829;DHT22;35723;51.194;5.112;2023-06-10T13:36:31;32.70;70.40
49829;DHT22;35723;51.194;5.112;2023-06-10T13:38:57;32.70;70.80
49829;DHT22;35723;51.194;5.112;2023-06-10T13:41:23;32.70;71.10
49829;DHT22;35723;51.194;5.112;2023-06-10T13:43:48;32.70;71.30
49829;DHT22;35723;51.194;5.112;2023-06-10T13:46:14;32.70;71.50
49829;DHT22;35723;51.194;5.112;2023-06-10T13:48:40;32.70;71.70
49829;DHT22;35723;51.194;5.112;2023-06-10T13:51:06;32.80;71.90
49829;DHT22;35723;51.194;5.112;2023-06-10T13:53:32;32.70;70.50
49829;DHT22;35723;51.194;5.112;2023-06-10T13:55:58;32.70;70.20
49829;DHT22;35723;51.194;5.112;2023-06-10T13:58:23;32.80;69.50
49829;DHT22;35723;51.194;5.112;2023-06-10T14:00:49;32.80;71.00
49829;DHT22;35723;51.194;5.112;2023-06-10T14:03:15;32.80;70.70
49829;DHT22;35723;51.194;5.112;2023-06-10T14:05:40;32.90;68.60
49829;DHT22;35723;51.194;5.112;2023-06-10T14:08:07;32.80;68.80
49829;DHT22;35723;51.194;5.112;2023-06-10T14:10:32;32.80;68.20
49829;DHT22;35723;51.194;5.112;2023-06-10T14:12:58;32.80;67.30
49829;DHT22;35723;51.194;5.112;2023-06-10T14:15:24;32.80;67.20
49829;DHT22;35723;51.194;5.112;2023-06-10T14:17:50;32.80;65.50
49829;DHT22;35723;51.194;5.112;2023-06-10T14:20:15;32.90;64.60
49829;DHT22;35723;51.194;5.112;2023-06-10T14:22:41;32.80;64.80
49829;DHT22;35723;51.194;5.112;2023-06-10T14:25:07;32.90;65.10
49829;DHT22;35723;51.194;5.112;2023-06-10T14:27:33;32.90;65.70
49829;DHT22;35723;51.194;5.112;2023-06-10T14:29:58;32.90;66.90
49829;DHT22;35723;51.194;5.112;2023-06-10T14:32:24;32.90;67.60
49829;DHT22;35723;51.194;5.112;2023-06-10T14:34:50;32.90;67.70
49829;DHT22;35723;51.194;5.112;2023-06-10T14:37:15;32.90;68.00
49829;DHT22;35723;51.194;5.112;2023-06-10T14:39:41;33.00;67.80
49829;DHT22;35723;51.194;5.112;2023-06-10T14:42:07;33.00;67.10
49829;DHT22;35723;51.194;5.112;2023-06-10T14:44:32;33.00;65.60
49829;DHT22;35723;51.194;5.112;2023-06-10T14:46:58;33.00;64.10
49829;DHT22;35723;51.194;5.112;2023-06-10T14:49:23;33.00;61.80
49829;DHT22;35723;51.194;5.112;2023-06-10T14:51:49;33.00;61.10
49829;DHT22;35723;51.194;5.112;2023-06-10T14:54:15;32.90;61.30
49829;DHT22;35723;51.194;5.112;2023-06-10T14:56:41;32.90;62.90
49829;DHT22;35723;51.194;5.112;2023-06-10T14:59:07;32.90;64.80
49829;DHT22;35723;51.194;5.112;2023-06-10T15:01:32;32.90;66.30
49829;DHT22;35723;51.194;5.112;2023-06-10T15:03:58;32.90;66.80
49829;DHT22;35723;51.194;5.112;2023-06-10T15:06:24;32.90;66.90
49829;DHT22;35723;51.194;5.112;2023-06-10T15:08:50;32.90;66.30
49829;DHT22;35723;51.194;5.112;2023-06-10T15:11:15;33.00;66.10
49829;DHT22;35723;51.194;5.112;2023-06-10T15:13:41;32.90;64.20
49829;DHT22;35723;51.194;5.112;2023-06-10T15:16:09;32.80;63.80
49829;DHT22;35723;51.194;5.112;2023-06-10T15:18:38;32.80;63.70
49829;DHT22;35723;51.194;5.112;2023-06-10T15:21:04;32.80;63.50
49829;DHT22;35723;51.194;5.112;2023-06-10T15:23:29;32.80;63.50
49829;DHT22;35723;51.194;5.112;2023-06-10T15:25:55;32.70;64.30
49829;DHT22;35723;51.194;5.112;2023-06-10T15:28:21;32.70;65.70
49829;DHT22;35723;51.194;5.112;2023-06-10T15:30:46;32.70;65.60
49829;DHT22;35723;51.194;5.112;2023-06-10T15:33:12;32.70;66.50
49829;DHT22;35723;51.194;5.112;2023-06-10T15:35:38;32.70;66.90
49829;DHT22;35723;51.194;5.112;2023-06-10T15:38:03;32.70;67.70
49829;DHT22;35723;51.194;5.112;2023-06-10T15:40:29;32.70;68.20
49829;DHT22;35723;51.194;5.112;2023-06-10T15:42:55;32.70;67.50
49829;DHT22;35723;51.194;5.112;2023-06-10T15:45:21;32.60;67.60
49829;DHT22;35723;51.194;5.112;2023-06-10T15:47:46;32.50;68.70
49829;DHT22;35723;51.194;5.112;2023-06-10T15:50:12;32.50;69.40